createdAt,value
2022-09-14T00:05:38.774Z,14.93
2022-09-14T00:15:45.114Z,14.63
2022-09-14T00:25:48.181Z,14.42
2022-09-14T00:35:52.580Z,14.31
2022-09-14T00:45:56.420Z,14.28
2022-09-14T00:56:00.860Z,14.19
2022-09-14T01:06:11.791Z,14.18
2022-09-14T01:16:25.478Z,14.18
2022-09-14T01:27:01.240Z,14.09
2022-09-14T01:37:13.149Z,13.93
2022-09-14T01:47:20.715Z,13.85
2022-09-14T01:57:30.058Z,13.78
2022-09-14T02:07:33.438Z,13.73
2022-09-14T02:17:38.166Z,13.62
2022-09-14T02:27:41.280Z,13.56
2022-09-14T02:37:54.499Z,13.54
2022-09-14T02:48:05.881Z,13.49
2022-09-14T02:58:11.949Z,13.52
2022-09-14T03:08:14.869Z,13.54
2022-09-14T03:18:19.619Z,13.49
2022-09-14T03:28:22.614Z,13.49
2022-09-14T03:38:30.126Z,13.46
2022-09-14T03:48:33.094Z,13.47
2022-09-14T03:58:38.388Z,13.34
2022-09-14T04:08:42.627Z,13.26
2022-09-14T04:18:47.018Z,13.23
2022-09-14T04:28:50.371Z,13.24
2022-09-14T04:38:57.138Z,13.26
2022-09-14T04:49:00.358Z,13.22
2022-09-14T04:59:06.121Z,13.20
2022-09-14T05:09:13.610Z,13.16
2022-09-14T05:19:19.355Z,13.11
2022-09-14T05:29:22.315Z,13.11
2022-09-14T05:39:26.620Z,13.18
2022-09-14T05:49:30.284Z,13.20
2022-09-14T05:59:35.601Z,13.22
2022-09-14T06:09:38.518Z,13.26
2022-09-14T06:19:42.865Z,13.24
2022-09-14T06:29:45.893Z,13.16
2022-09-14T06:39:50.447Z,13.20
2022-09-14T06:49:53.467Z,13.08
2022-09-14T06:59:57.824Z,12.98
2022-09-14T07:10:00.675Z,13.00
2022-09-14T07:20:06.002Z,12.99
2022-09-14T07:30:10.523Z,13.02
2022-09-14T07:40:14.972Z,13.13
2022-09-14T07:50:18.275Z,13.30
2022-09-14T08:00:23.289Z,13.31
2022-09-14T08:10:26.712Z,13.43
2022-09-14T08:20:31.192Z,13.48
2022-09-14T08:30:34.586Z,13.52
2022-09-14T08:40:46.281Z,13.53
2022-09-14T08:50:53.792Z,13.77
2022-09-14T09:01:05.210Z,13.95
2022-09-14T09:11:15.209Z,13.91
2022-09-14T09:21:23.551Z,14.05
2022-09-14T09:31:37.350Z,13.94
2022-09-14T09:42:05.154Z,14.02
2022-09-14T09:52:11.022Z,14.14
2022-09-14T10:02:36.215Z,14.20
2022-09-14T10:12:46.775Z,14.32
2022-09-14T10:22:51.225Z,14.76
2022-09-14T10:32:59.243Z,14.75
2022-09-14T10:43:14.517Z,14.54
2022-09-14T10:53:39.185Z,14.39
2022-09-14T11:04:03.553Z,14.53
2022-09-14T11:14:27.869Z,14.33
2022-09-14T11:24:41.378Z,14.38
2022-09-14T11:34:49.393Z,14.37
2022-09-14T11:45:00.975Z,14.22
2022-09-14T11:55:10.325Z,13.81
2022-09-14T12:05:35.583Z,13.86
2022-09-14T12:15:40.874Z,13.96
2022-09-14T12:26:05.282Z,14.15
2022-09-14T12:36:10.944Z,14.01
2022-09-14T12:46:36.563Z,14.07
2022-09-14T12:56:54.064Z,13.99
2022-09-14T13:07:07.750Z,14.12
2022-09-14T13:17:16.242Z,14.26
2022-09-14T13:27:26.026Z,14.25
2022-09-14T13:37:29.791Z,14.16
2022-09-14T13:47:35.068Z,14.08
2022-09-14T13:57:39.479Z,13.98
2022-09-14T14:07:47.703Z,13.92
2022-09-14T14:17:51.768Z,13.94
2022-09-14T14:28:04.642Z,14.01
2022-09-14T14:38:13.362Z,14.00
2022-09-14T14:48:26.689Z,13.98
2022-09-14T14:58:36.486Z,13.95
2022-09-14T15:08:41.984Z,14.02
2022-09-14T15:18:48.195Z,14.15
2022-09-14T15:29:01.158Z,14.33
2022-09-14T15:39:04.757Z,14.44
2022-09-14T15:49:14.245Z,14.81
2022-09-14T15:59:19.417Z,14.82
2022-09-14T16:09:24.264Z,15.04
2022-09-14T16:19:46.041Z,15.31
2022-09-14T16:29:50.931Z,15.22
2022-09-14T16:39:54.549Z,15.24
2022-09-14T16:50:10.011Z,15.07
2022-09-14T17:00:14.374Z,14.93
2022-09-14T17:10:22.284Z,14.79
2022-09-14T17:20:28.742Z,14.56
2022-09-14T17:30:36.341Z,14.48
2022-09-14T17:40:46.191Z,14.32
2022-09-14T17:50:51.424Z,14.11
2022-09-14T18:01:05.730Z,13.90
2022-09-14T18:11:12.169Z,13.67
2022-09-14T18:21:16.951Z,13.38
2022-09-14T18:31:21.272Z,13.09
2022-09-14T18:41:24.453Z,12.87
2022-09-14T18:51:30.399Z,12.75
2022-09-14T19:01:34.823Z,12.66
2022-09-14T19:11:39.544Z,12.69
2022-09-14T19:21:42.992Z,12.50
2022-09-14T19:31:50.970Z,12.35
2022-09-14T19:41:54.524Z,12.26
2022-09-14T19:51:59.132Z,12.22
2022-09-14T20:02:02.518Z,12.06
2022-09-14T20:12:07.340Z,11.92
2022-09-14T20:22:13.714Z,11.77
2022-09-14T20:32:21.059Z,11.62
2022-09-14T20:42:24.034Z,11.67
2022-09-14T20:52:28.442Z,11.98
2022-09-14T21:02:32.506Z,12.17
2022-09-14T21:12:37.077Z,12.35
2022-09-14T21:22:40.283Z,12.45
2022-09-14T21:32:49.651Z,12.59
2022-09-14T21:42:52.678Z,12.58
2022-09-14T21:52:57.023Z,12.54
2022-09-14T22:03:00.057Z,12.56
2022-09-14T22:13:04.585Z,12.59
2022-09-14T22:23:07.609Z,12.65
2022-09-14T22:33:12.217Z,12.74
2022-09-14T22:43:15.220Z,12.85
2022-09-14T22:53:20.222Z,12.91
2022-09-14T23:03:23.142Z,12.90
2022-09-14T23:13:27.516Z,12.69
2022-09-14T23:23:30.530Z,12.43
2022-09-14T23:33:34.998Z,12.24
2022-09-14T23:43:37.973Z,12.11
2022-09-14T23:53:43.200Z,12.00
